Airfield :
LOGIN :

Register | Disclaimer

   EN    FR    IT 

 










Legend :    VFR   Marginal VFR   IFR   Intensive IFR   Very Intensive IFR
Visi :
Ceiling :
>= 8 km
>= 3000ft
5 to 8 km
1000 to 3000 ft
1500m to 5 km
500 to 1000 ft
800 to 1500m
200 to 500 ft
< 800m
< 200 ft
Symbols :   Thunderstorms  Fog  Heavy snow  Heavy precipitations  Wind > 20 kt
SIGMETs :     Misc.  Thunderstorms  Icing  Turbulence  Mountain Waves  Volcanic Ashes






- Airport Elevation : 313 ft


LFQA - Reims-Prunay

CURRENT METAR :
  • 111200Z AUTO 27007KT 210V310 CAVOK 34/16 Q1014

EXPIRED METARs :
  • 111130Z AUTO 28004KT 190V340 CAVOK 34/16 Q1014
  • 111100Z AUTO 25005KT 190V310 CAVOK 34/17 Q1014
  • 111030Z AUTO VRB05KT CAVOK 33/16 Q1014
  • 111000Z AUTO 29005KT 240V350 CAVOK 32/16 Q1014
  • 110930Z AUTO 28006KT 240V340 CAVOK 32/16 Q1014

TAF N/A



MET'MAP, your aeronautical weather chart ! - Copyright ORBIFLY December 2007 - Disclaimer

ORBIFLY MET'MAP TEAM :

Programming & Development : Alexandra Zaïnal
Concept & original design : Baudouin d'Aumeries
Assistance for programming : Marc-Olivier Méhu
Technical & hardware support : Manuel Goepfert

Contact : metmap@orbifly.com




SOURCES & CREDITS :

   NOAA